sensor_id;sensor_type;location;lat;lon;timestamp;P1;durP1;ratioP1;P2;durP2;ratioP2
34876;SDS011;21086;44.780;17.194;2023-02-28T00:01:12;11.77;;;8.55;;
34876;SDS011;21086;44.780;17.194;2023-02-28T00:03:40;15.80;;;11.95;;
34876;SDS011;21086;44.780;17.194;2023-02-28T00:06:07;13.15;;;9.18;;
34876;SDS011;21086;44.780;17.194;2023-02-28T00:08:39;14.32;;;10.93;;
34876;SDS011;21086;44.780;17.194;2023-02-28T00:11:07;11.32;;;8.85;;
34876;SDS011;21086;44.780;17.194;2023-02-28T00:13:37;12.60;;;10.05;;
34876;SDS011;21086;44.780;17.194;2023-02-28T00:16:09;11.05;;;8.73;;
34876;SDS011;21086;44.780;17.194;2023-02-28T00:18:40;12.35;;;8.98;;
34876;SDS011;21086;44.780;17.194;2023-02-28T00:21:07;10.98;;;8.70;;
34876;SDS011;21086;44.780;17.194;2023-02-28T00:23:35;10.25;;;7.57;;
34876;SDS011;21086;44.780;17.194;2023-02-28T00:26:02;8.18;;;6.70;;
34876;SDS011;21086;44.780;17.194;2023-02-28T00:28:30;7.35;;;5.97;;
34876;SDS011;21086;44.780;17.194;2023-02-28T00:30:57;6.57;;;5.88;;
34876;SDS011;21086;44.780;17.194;2023-02-28T00:33:24;6.68;;;5.85;;
34876;SDS011;21086;44.780;17.194;2023-02-28T00:35:51;9.90;;;7.28;;
34876;SDS011;21086;44.780;17.194;2023-02-28T00:38:18;7.53;;;6.13;;
34876;SDS011;21086;44.780;17.194;2023-02-28T00:40:45;5.45;;;4.53;;
34876;SDS011;21086;44.780;17.194;2023-02-28T00:43:12;6.60;;;5.30;;
34876;SDS011;21086;44.780;17.194;2023-02-28T00:45:39;6.40;;;5.47;;
34876;SDS011;21086;44.780;17.194;2023-02-28T00:48:06;5.97;;;5.38;;
34876;SDS011;21086;44.780;17.194;2023-02-28T00:50:34;7.90;;;6.07;;
34876;SDS011;21086;44.780;17.194;2023-02-28T00:53:00;6.38;;;4.88;;
34876;SDS011;21086;44.780;17.194;2023-02-28T00:55:27;7.85;;;5.53;;
34876;SDS011;21086;44.780;17.194;2023-02-28T00:57:54;7.00;;;5.80;;
34876;SDS011;21086;44.780;17.194;2023-02-28T01:00:21;5.75;;;5.10;;
34876;SDS011;21086;44.780;17.194;2023-02-28T01:02:48;6.25;;;4.82;;
34876;SDS011;21086;44.780;17.194;2023-02-28T01:05:14;6.75;;;5.72;;
34876;SDS011;21086;44.780;17.194;2023-02-28T01:07:42;6.60;;;5.57;;
34876;SDS011;21086;44.780;17.194;2023-02-28T01:10:09;6.00;;;5.03;;
34876;SDS011;21086;44.780;17.194;2023-02-28T01:12:36;6.57;;;5.78;;
34876;SDS011;21086;44.780;17.194;2023-02-28T01:15:03;7.38;;;5.53;;
34876;SDS011;21086;44.780;17.194;2023-02-28T01:17:31;6.55;;;5.70;;
34876;SDS011;21086;44.780;17.194;2023-02-28T01:19:57;4.97;;;4.18;;
34876;SDS011;21086;44.780;17.194;2023-02-28T01:22:24;7.55;;;6.35;;
34876;SDS011;21086;44.780;17.194;2023-02-28T01:24:52;5.35;;;4.70;;
34876;SDS011;21086;44.780;17.194;2023-02-28T01:27:19;7.00;;;5.32;;
34876;SDS011;21086;44.780;17.194;2023-02-28T01:29:45;6.38;;;4.65;;
34876;SDS011;21086;44.780;17.194;2023-02-28T01:32:13;6.07;;;4.68;;
34876;SDS011;21086;44.780;17.194;2023-02-28T01:34:40;5.57;;;4.20;;
34876;SDS011;21086;44.780;17.194;2023-02-28T01:37:07;5.68;;;5.07;;
34876;SDS011;21086;44.780;17.194;2023-02-28T01:39:34;5.75;;;5.00;;
34876;SDS011;21086;44.780;17.194;2023-02-28T01:42:01;5.28;;;4.60;;
34876;SDS011;21086;44.780;17.194;2023-02-28T01:47:35;6.82;;;5.88;;
34876;SDS011;21086;44.780;17.194;2023-02-28T01:50:06;5.60;;;4.95;;
34876;SDS011;21086;44.780;17.194;2023-02-28T01:52:37;6.40;;;5.75;;
34876;SDS011;21086;44.780;17.194;2023-02-28T01:55:04;5.60;;;4.80;;
34876;SDS011;21086;44.780;17.194;2023-02-28T01:57:34;4.88;;;4.38;;
34876;SDS011;21086;44.780;17.194;2023-02-28T02:00:05;5.18;;;4.20;;
34876;SDS011;21086;44.780;17.194;2023-02-28T02:02:45;4.93;;;4.35;;
34876;SDS011;21086;44.780;17.194;2023-02-28T02:05:16;5.90;;;4.13;;
34876;SDS011;21086;44.780;17.194;2023-02-28T02:07:46;5.93;;;5.03;;
34876;SDS011;21086;44.780;17.194;2023-02-28T02:10:20;4.57;;;3.65;;
34876;SDS011;21086;44.780;17.194;2023-02-28T02:15:39;5.22;;;3.92;;
34876;SDS011;21086;44.780;17.194;2023-02-28T02:33:09;4.40;;;3.42;;
34876;SDS011;21086;44.780;17.194;2023-02-28T02:43:46;3.53;;;2.90;;
34876;SDS011;21086;44.780;17.194;2023-02-28T02:46:19;3.97;;;2.83;;
34876;SDS011;21086;44.780;17.194;2023-02-28T02:48:48;3.42;;;2.95;;
34876;SDS011;21086;44.780;17.194;2023-02-28T02:51:19;3.33;;;2.58;;
34876;SDS011;21086;44.780;17.194;2023-02-28T02:53:50;3.90;;;3.17;;
34876;SDS011;21086;44.780;17.194;2023-02-28T02:56:26;3.90;;;3.50;;
34876;SDS011;21086;44.780;17.194;2023-02-28T02:59:07;3.22;;;2.75;;
34876;SDS011;21086;44.780;17.194;2023-02-28T03:01:37;4.28;;;3.33;;
34876;SDS011;21086;44.780;17.194;2023-02-28T03:04:08;3.25;;;2.88;;
34876;SDS011;21086;44.780;17.194;2023-02-28T03:06:38;4.28;;;2.92;;
34876;SDS011;21086;44.780;17.194;2023-02-28T03:09:05;3.38;;;2.80;;
34876;SDS011;21086;44.780;17.194;2023-02-28T03:11:32;3.97;;;2.72;;
34876;SDS011;21086;44.780;17.194;2023-02-28T03:25:18;4.00;;;3.28;;
34876;SDS011;21086;44.780;17.194;2023-02-28T03:33:18;3.45;;;2.88;;
34876;SDS011;21086;44.780;17.194;2023-02-28T03:35:52;4.68;;;3.50;;
34876;SDS011;21086;44.780;17.194;2023-02-28T03:41:27;7.07;;;5.32;;
34876;SDS011;21086;44.780;17.194;2023-02-28T03:44:13;9.63;;;6.72;;
34876;SDS011;21086;44.780;17.194;2023-02-28T03:46:45;11.98;;;9.40;;
34876;SDS011;21086;44.780;17.194;2023-02-28T03:49:22;11.75;;;8.30;;
34876;SDS011;21086;44.780;17.194;2023-02-28T03:51:52;18.38;;;13.27;;
34876;SDS011;21086;44.780;17.194;2023-02-28T03:54:34;12.80;;;9.30;;
34876;SDS011;21086;44.780;17.194;2023-02-28T03:57:10;10.05;;;7.65;;
34876;SDS011;21086;44.780;17.194;2023-02-28T03:59:45;6.38;;;5.30;;
34876;SDS011;21086;44.780;17.194;2023-02-28T04:02:15;5.40;;;4.53;;
34876;SDS011;21086;44.780;17.194;2023-02-28T04:04:42;5.15;;;4.03;;
34876;SDS011;21086;44.780;17.194;2023-02-28T04:07:15;5.38;;;4.60;;
34876;SDS011;21086;44.780;17.194;2023-02-28T04:09:43;6.28;;;5.15;;
34876;SDS011;21086;44.780;17.194;2023-02-28T04:12:10;5.38;;;3.92;;
34876;SDS011;21086;44.780;17.194;2023-02-28T04:14:37;5.32;;;4.30;;
34876;SDS011;21086;44.780;17.194;2023-02-28T04:17:07;3.95;;;3.53;;
34876;SDS011;21086;44.780;17.194;2023-02-28T04:19:34;5.03;;;4.03;;
34876;SDS011;21086;44.780;17.194;2023-02-28T04:22:02;5.90;;;3.05;;
34876;SDS011;21086;44.780;17.194;2023-02-28T04:24:29;3.45;;;2.90;;
34876;SDS011;21086;44.780;17.194;2023-02-28T04:26:57;3.63;;;2.50;;
34876;SDS011;21086;44.780;17.194;2023-02-28T04:29:31;3.30;;;2.47;;
34876;SDS011;21086;44.780;17.194;2023-02-28T04:31:58;3.15;;;2.78;;
34876;SDS011;21086;44.780;17.194;2023-02-28T04:34:27;3.58;;;3.10;;
34876;SDS011;21086;44.780;17.194;2023-02-28T04:36:56;4.28;;;3.00;;
34876;SDS011;21086;44.780;17.194;2023-02-28T04:39:40;3.63;;;2.72;;
34876;SDS011;21086;44.780;17.194;2023-02-28T04:42:08;6.00;;;4.35;;
34876;SDS011;21086;44.780;17.194;2023-02-28T04:44:35;5.38;;;4.88;;
34876;SDS011;21086;44.780;17.194;2023-02-28T04:47:02;5.43;;;4.30;;
34876;SDS011;21086;44.780;17.194;2023-02-28T04:49:29;4.35;;;2.97;;
34876;SDS011;21086;44.780;17.194;2023-02-28T04:51:56;4.10;;;3.35;;
34876;SDS011;21086;44.780;17.194;2023-02-28T04:54:22;4.97;;;3.80;;
34876;SDS011;21086;44.780;17.194;2023-02-28T04:56:50;5.53;;;4.10;;
34876;SDS011;21086;44.780;17.194;2023-02-28T04:59:17;4.93;;;3.75;;
34876;SDS011;21086;44.780;17.194;2023-02-28T05:01:47;6.00;;;4.90;;
34876;SDS011;21086;44.780;17.194;2023-02-28T05:04:15;6.13;;;4.75;;
34876;SDS011;21086;44.780;17.194;2023-02-28T05:06:42;6.20;;;4.75;;
34876;SDS011;21086;44.780;17.194;2023-02-28T05:09:09;6.15;;;4.43;;
34876;SDS011;21086;44.780;17.194;2023-02-28T05:11:39;4.78;;;3.78;;
34876;SDS011;21086;44.780;17.194;2023-02-28T05:14:12;6.22;;;5.10;;
34876;SDS011;21086;44.780;17.194;2023-02-28T05:16:40;7.05;;;5.43;;
34876;SDS011;21086;44.780;17.194;2023-02-28T05:19:07;5.90;;;4.28;;
34876;SDS011;21086;44.780;17.194;2023-02-28T05:21:36;6.03;;;4.93;;
34876;SDS011;21086;44.780;17.194;2023-02-28T05:24:11;5.72;;;4.78;;
34876;SDS011;21086;44.780;17.194;2023-02-28T05:26:39;6.82;;;5.35;;
34876;SDS011;21086;44.780;17.194;2023-02-28T05:29:08;5.38;;;4.20;;
34876;SDS011;21086;44.780;17.194;2023-02-28T05:31:36;5.13;;;4.07;;
34876;SDS011;21086;44.780;17.194;2023-02-28T05:34:04;5.22;;;4.15;;
34876;SDS011;21086;44.780;17.194;2023-02-28T05:36:31;5.88;;;4.35;;
34876;SDS011;21086;44.780;17.194;2023-02-28T05:38:58;5.32;;;3.92;;
34876;SDS011;21086;44.780;17.194;2023-02-28T05:41:26;5.22;;;4.05;;
34876;SDS011;21086;44.780;17.194;2023-02-28T05:43:53;5.47;;;3.70;;
34876;SDS011;21086;44.780;17.194;2023-02-28T05:46:20;5.35;;;4.05;;
34876;SDS011;21086;44.780;17.194;2023-02-28T05:48:47;3.00;;;2.58;;
34876;SDS011;21086;44.780;17.194;2023-02-28T05:51:15;4.93;;;4.20;;
34876;SDS011;21086;44.780;17.194;2023-02-28T05:53:42;5.88;;;4.60;;
34876;SDS011;21086;44.780;17.194;2023-02-28T05:56:10;4.10;;;3.35;;
34876;SDS011;21086;44.780;17.194;2023-02-28T05:58:37;4.60;;;3.75;;
34876;SDS011;21086;44.780;17.194;2023-02-28T06:04:02;3.60;;;3.00;;
34876;SDS011;21086;44.780;17.194;2023-02-28T06:06:31;4.82;;;3.90;;
34876;SDS011;21086;44.780;17.194;2023-02-28T06:09:03;5.93;;;4.30;;
34876;SDS011;21086;44.780;17.194;2023-02-28T06:11:31;4.35;;;3.58;;
34876;SDS011;21086;44.780;17.194;2023-02-28T06:13:59;6.10;;;4.78;;
34876;SDS011;21086;44.780;17.194;2023-02-28T06:16:27;6.80;;;5.30;;
34876;SDS011;21086;44.780;17.194;2023-02-28T06:18:56;6.15;;;5.03;;
34876;SDS011;21086;44.780;17.194;2023-02-28T06:21:25;6.95;;;5.03;;
34876;SDS011;21086;44.780;17.194;2023-02-28T06:23:54;7.50;;;5.40;;
34876;SDS011;21086;44.780;17.194;2023-02-28T06:26:23;6.47;;;5.57;;
34876;SDS011;21086;44.780;17.194;2023-02-28T06:28:50;4.97;;;4.22;;
34876;SDS011;21086;44.780;17.194;2023-02-28T06:31:17;6.10;;;4.55;;
34876;SDS011;21086;44.780;17.194;2023-02-28T06:33:46;5.50;;;4.18;;
34876;SDS011;21086;44.780;17.194;2023-02-28T06:36:14;6.28;;;5.20;;
34876;SDS011;21086;44.780;17.194;2023-02-28T06:38:42;6.80;;;4.93;;
34876;SDS011;21086;44.780;17.194;2023-02-28T06:41:09;5.72;;;4.40;;
34876;SDS011;21086;44.780;17.194;2023-02-28T06:43:39;4.38;;;3.97;;
34876;SDS011;21086;44.780;17.194;2023-02-28T06:46:08;5.00;;;3.97;;
34876;SDS011;21086;44.780;17.194;2023-02-28T06:48:38;8.50;;;5.97;;
34876;SDS011;21086;44.780;17.194;2023-02-28T06:51:06;7.38;;;5.30;;
34876;SDS011;21086;44.780;17.194;2023-02-28T06:53:36;5.68;;;4.85;;
34876;SDS011;21086;44.780;17.194;2023-02-28T06:56:05;5.78;;;5.15;;
34876;SDS011;21086;44.780;17.194;2023-02-28T06:58:34;8.77;;;6.40;;
34876;SDS011;21086;44.780;17.194;2023-02-28T07:01:02;8.30;;;6.25;;
34876;SDS011;21086;44.780;17.194;2023-02-28T07:03:30;10.60;;;6.78;;
34876;SDS011;21086;44.780;17.194;2023-02-28T07:05:59;10.75;;;6.47;;
34876;SDS011;21086;44.780;17.194;2023-02-28T07:08:27;5.75;;;4.57;;
34876;SDS011;21086;44.780;17.194;2023-02-28T07:10:54;6.70;;;5.13;;
34876;SDS011;21086;44.780;17.194;2023-02-28T07:13:22;6.82;;;4.82;;
34876;SDS011;21086;44.780;17.194;2023-02-28T07:15:53;10.32;;;6.15;;
34876;SDS011;21086;44.780;17.194;2023-02-28T07:18:29;8.15;;;6.43;;
34876;SDS011;21086;44.780;17.194;2023-02-28T07:20:56;10.45;;;6.25;;
34876;SDS011;21086;44.780;17.194;2023-02-28T07:23:23;7.43;;;5.57;;
34876;SDS011;21086;44.780;17.194;2023-02-28T07:25:50;9.25;;;7.13;;
34876;SDS011;21086;44.780;17.194;2023-02-28T07:28:18;8.27;;;6.95;;
34876;SDS011;21086;44.780;17.194;2023-02-28T07:30:45;7.53;;;6.18;;
34876;SDS011;21086;44.780;17.194;2023-02-28T07:33:12;10.88;;;7.30;;
34876;SDS011;21086;44.780;17.194;2023-02-28T07:35:39;7.60;;;6.15;;
34876;SDS011;21086;44.780;17.194;2023-02-28T07:38:06;9.75;;;7.20;;
34876;SDS011;21086;44.780;17.194;2023-02-28T07:40:36;13.07;;;11.52;;
34876;SDS011;21086;44.780;17.194;2023-02-28T07:43:03;13.98;;;10.10;;
34876;SDS011;21086;44.780;17.194;2023-02-28T07:45:31;12.13;;;10.73;;
34876;SDS011;21086;44.780;17.194;2023-02-28T07:48:01;9.77;;;8.23;;
34876;SDS011;21086;44.780;17.194;2023-02-28T07:50:28;10.63;;;9.18;;
34876;SDS011;21086;44.780;17.194;2023-02-28T07:52:58;11.20;;;9.02;;
34876;SDS011;21086;44.780;17.194;2023-02-28T07:55:26;13.60;;;10.85;;
34876;SDS011;21086;44.780;17.194;2023-02-28T07:57:53;20.92;;;15.63;;
34876;SDS011;21086;44.780;17.194;2023-02-28T08:00:20;15.57;;;13.05;;
34876;SDS011;21086;44.780;17.194;2023-02-28T08:02:48;15.88;;;12.95;;
34876;SDS011;21086;44.780;17.194;2023-02-28T08:05:15;16.10;;;12.63;;
34876;SDS011;21086;44.780;17.194;2023-02-28T08:07:43;16.60;;;12.07;;
34876;SDS011;21086;44.780;17.194;2023-02-28T08:10:11;16.75;;;13.38;;
34876;SDS011;21086;44.780;17.194;2023-02-28T08:12:38;11.50;;;9.35;;
34876;SDS011;21086;44.780;17.194;2023-02-28T08:15:05;11.77;;;10.10;;
34876;SDS011;21086;44.780;17.194;2023-02-28T08:17:32;11.23;;;9.25;;
34876;SDS011;21086;44.780;17.194;2023-02-28T08:20:00;11.73;;;10.23;;
34876;SDS011;21086;44.780;17.194;2023-02-28T08:22:27;14.88;;;11.23;;
34876;SDS011;21086;44.780;17.194;2023-02-28T08:24:55;7.55;;;6.25;;
34876;SDS011;21086;44.780;17.194;2023-02-28T08:27:21;11.98;;;8.02;;
34876;SDS011;21086;44.780;17.194;2023-02-28T08:29:48;11.75;;;10.25;;
34876;SDS011;21086;44.780;17.194;2023-02-28T08:32:15;16.67;;;11.15;;
34876;SDS011;21086;44.780;17.194;2023-02-28T08:34:55;15.98;;;11.82;;
34876;SDS011;21086;44.780;17.194;2023-02-28T08:37:22;9.45;;;8.38;;
34876;SDS011;21086;44.780;17.194;2023-02-28T08:39:49;12.27;;;10.57;;
34876;SDS011;21086;44.780;17.194;2023-02-28T08:42:22;10.68;;;8.38;;
34876;SDS011;21086;44.780;17.194;2023-02-28T08:44:49;8.57;;;7.68;;
34876;SDS011;21086;44.780;17.194;2023-02-28T08:47:17;9.57;;;8.43;;
34876;SDS011;21086;44.780;17.194;2023-02-28T08:49:50;10.43;;;8.48;;
34876;SDS011;21086;44.780;17.194;2023-02-28T08:52:17;10.52;;;8.50;;
34876;SDS011;21086;44.780;17.194;2023-02-28T08:54:43;8.95;;;7.97;;
34876;SDS011;21086;44.780;17.194;2023-02-28T08:57:11;11.35;;;9.20;;
34876;SDS011;21086;44.780;17.194;2023-02-28T08:59:37;10.15;;;8.35;;
34876;SDS011;21086;44.780;17.194;2023-02-28T09:02:09;9.88;;;8.65;;
34876;SDS011;21086;44.780;17.194;2023-02-28T09:04:38;9.02;;;7.05;;
34876;SDS011;21086;44.780;17.194;2023-02-28T09:07:06;10.75;;;8.30;;
34876;SDS011;21086;44.780;17.194;2023-02-28T09:09:33;12.25;;;9.23;;
34876;SDS011;21086;44.780;17.194;2023-02-28T09:12:03;13.40;;;10.07;;
34876;SDS011;21086;44.780;17.194;2023-02-28T09:14:31;8.70;;;7.22;;
34876;SDS011;21086;44.780;17.194;2023-02-28T09:16:58;13.85;;;11.23;;
34876;SDS011;21086;44.780;17.194;2023-02-28T09:19:25;10.82;;;9.18;;
34876;SDS011;21086;44.780;17.194;2023-02-28T09:21:52;12.20;;;9.65;;
34876;SDS011;21086;44.780;17.194;2023-02-28T09:24:19;8.82;;;7.22;;
34876;SDS011;21086;44.780;17.194;2023-02-28T09:26:46;12.32;;;9.70;;
34876;SDS011;21086;44.780;17.194;2023-02-28T09:29:30;11.52;;;9.30;;
34876;SDS011;21086;44.780;17.194;2023-02-28T09:32:00;8.48;;;7.32;;
34876;SDS011;21086;44.780;17.194;2023-02-28T09:34:28;11.13;;;9.30;;
34876;SDS011;21086;44.780;17.194;2023-02-28T09:36:58;8.38;;;7.07;;
34876;SDS011;21086;44.780;17.194;2023-02-28T09:39:25;8.32;;;7.40;;
34876;SDS011;21086;44.780;17.194;2023-02-28T09:41:53;7.68;;;6.47;;
34876;SDS011;21086;44.780;17.194;2023-02-28T09:46:54;7.43;;;6.45;;
34876;SDS011;21086;44.780;17.194;2023-02-28T09:49:37;6.55;;;5.85;;
34876;SDS011;21086;44.780;17.194;2023-02-28T09:52:11;9.82;;;7.07;;
34876;SDS011;21086;44.780;17.194;2023-02-28T09:54:42;9.68;;;7.80;;
34876;SDS011;21086;44.780;17.194;2023-02-28T10:05:14;13.13;;;9.07;;
34876;SDS011;21086;44.780;17.194;2023-02-28T10:10:41;6.28;;;5.45;;
34876;SDS011;21086;44.780;17.194;2023-02-28T10:15:58;5.78;;;5.10;;
34876;SDS011;21086;44.780;17.194;2023-02-28T10:18:31;7.20;;;6.05;;
34876;SDS011;21086;44.780;17.194;2023-02-28T10:21:21;9.88;;;7.47;;
34876;SDS011;21086;44.780;17.194;2023-02-28T10:24:05;10.45;;;8.13;;
34876;SDS011;21086;44.780;17.194;2023-02-28T10:26:49;8.95;;;6.47;;
34876;SDS011;21086;44.780;17.194;2023-02-28T10:29:23;8.48;;;7.18;;
34876;SDS011;21086;44.780;17.194;2023-02-28T10:31:50;10.05;;;7.75;;
34876;SDS011;21086;44.780;17.194;2023-02-28T10:34:17;7.97;;;6.57;;
34876;SDS011;21086;44.780;17.194;2023-02-28T10:36:45;8.57;;;7.07;;
34876;SDS011;21086;44.780;17.194;2023-02-28T10:42:03;8.77;;;6.95;;
34876;SDS011;21086;44.780;17.194;2023-02-28T10:44:30;7.20;;;5.75;;
34876;SDS011;21086;44.780;17.194;2023-02-28T10:46:57;10.88;;;8.90;;
34876;SDS011;21086;44.780;17.194;2023-02-28T10:49:28;9.07;;;7.45;;
34876;SDS011;21086;44.780;17.194;2023-02-28T10:51:57;11.65;;;8.65;;
34876;SDS011;21086;44.780;17.194;2023-02-28T10:54:32;9.10;;;7.05;;
34876;SDS011;21086;44.780;17.194;2023-02-28T10:57:05;12.13;;;7.30;;
34876;SDS011;21086;44.780;17.194;2023-02-28T10:59:34;9.50;;;7.90;;
34876;SDS011;21086;44.780;17.194;2023-02-28T11:02:08;11.35;;;9.45;;
34876;SDS011;21086;44.780;17.194;2023-02-28T11:04:58;9.25;;;7.53;;
34876;SDS011;21086;44.780;17.194;2023-02-28T11:07:25;9.43;;;7.80;;
34876;SDS011;21086;44.780;17.194;2023-02-28T11:10:06;11.63;;;8.93;;
34876;SDS011;21086;44.780;17.194;2023-02-28T11:20:39;13.45;;;9.07;;
34876;SDS011;21086;44.780;17.194;2023-02-28T11:23:10;14.05;;;10.73;;
34876;SDS011;21086;44.780;17.194;2023-02-28T11:25:39;16.60;;;10.65;;
34876;SDS011;21086;44.780;17.194;2023-02-28T11:33:44;13.63;;;9.75;;
34876;SDS011;21086;44.780;17.194;2023-02-28T11:36:23;11.43;;;8.77;;
34876;SDS011;21086;44.780;17.194;2023-02-28T11:38:53;12.93;;;10.23;;
34876;SDS011;21086;44.780;17.194;2023-02-28T11:47:14;10.68;;;9.02;;
34876;SDS011;21086;44.780;17.194;2023-02-28T11:49:54;12.57;;;10.25;;
34876;SDS011;21086;44.780;17.194;2023-02-28T11:52:53;9.70;;;8.00;;
34876;SDS011;21086;44.780;17.194;2023-02-28T11:58:14;11.32;;;8.30;;
34876;SDS011;21086;44.780;17.194;2023-02-28T12:11:55;12.10;;;10.05;;
34876;SDS011;21086;44.780;17.194;2023-02-28T12:17:16;11.18;;;7.72;;
34876;SDS011;21086;44.780;17.194;2023-02-28T12:19:52;12.73;;;9.90;;
34876;SDS011;21086;44.780;17.194;2023-02-28T12:22:29;9.93;;;7.55;;
34876;SDS011;21086;44.780;17.194;2023-02-28T12:27:34;14.30;;;10.35;;
34876;SDS011;21086;44.780;17.194;2023-02-28T12:30:08;9.27;;;7.50;;
34876;SDS011;21086;44.780;17.194;2023-02-28T12:32:41;9.15;;;7.18;;
34876;SDS011;21086;44.780;17.194;2023-02-28T12:35:12;7.95;;;5.93;;
34876;SDS011;21086;44.780;17.194;2023-02-28T12:40:31;10.63;;;8.43;;
34876;SDS011;21086;44.780;17.194;2023-02-28T12:43:09;12.43;;;10.10;;
34876;SDS011;21086;44.780;17.194;2023-02-28T12:45:46;7.47;;;6.53;;
34876;SDS011;21086;44.780;17.194;2023-02-28T12:48:31;10.45;;;8.15;;
34876;SDS011;21086;44.780;17.194;2023-02-28T12:51:06;9.00;;;7.35;;
34876;SDS011;21086;44.780;17.194;2023-02-28T12:58:50;13.85;;;12.18;;
34876;SDS011;21086;44.780;17.194;2023-02-28T13:04:14;11.27;;;9.50;;
34876;SDS011;21086;44.780;17.194;2023-02-28T13:09:28;10.82;;;7.95;;
34876;SDS011;21086;44.780;17.194;2023-02-28T13:11:56;15.48;;;10.55;;
34876;SDS011;21086;44.780;17.194;2023-02-28T13:14:28;9.15;;;7.75;;
34876;SDS011;21086;44.780;17.194;2023-02-28T13:19:42;15.45;;;12.85;;
34876;SDS011;21086;44.780;17.194;2023-02-28T13:22:35;19.08;;;13.88;;
34876;SDS011;21086;44.780;17.194;2023-02-28T13:25:01;21.65;;;16.02;;
34876;SDS011;21086;44.780;17.194;2023-02-28T13:27:47;21.90;;;15.77;;
34876;SDS011;21086;44.780;17.194;2023-02-28T13:33:37;15.50;;;12.10;;
34876;SDS011;21086;44.780;17.194;2023-02-28T13:36:27;14.60;;;12.32;;
34876;SDS011;21086;44.780;17.194;2023-02-28T13:49:18;16.77;;;12.43;;
34876;SDS011;21086;44.780;17.194;2023-02-28T14:05:42;11.48;;;9.63;;
34876;SDS011;21086;44.780;17.194;2023-02-28T14:08:16;12.73;;;9.88;;
34876;SDS011;21086;44.780;17.194;2023-02-28T14:10:50;15.93;;;12.13;;
34876;SDS011;21086;44.780;17.194;2023-02-28T14:16:14;40.30;;;27.17;;
34876;SDS011;21086;44.780;17.194;2023-02-28T14:18:58;15.27;;;12.77;;
34876;SDS011;21086;44.780;17.194;2023-02-28T14:21:34;14.75;;;12.63;;
34876;SDS011;21086;44.780;17.194;2023-02-28T14:26:53;9.85;;;8.50;;
34876;SDS011;21086;44.780;17.194;2023-02-28T14:29:51;10.07;;;9.00;;
34876;SDS011;21086;44.780;17.194;2023-02-28T14:32:45;8.55;;;7.65;;
34876;SDS011;21086;44.780;17.194;2023-02-28T14:38:19;11.07;;;9.93;;
34876;SDS011;21086;44.780;17.194;2023-02-28T14:40:52;11.40;;;9.90;;
34876;SDS011;21086;44.780;17.194;2023-02-28T14:43:22;12.32;;;8.90;;
34876;SDS011;21086;44.780;17.194;2023-02-28T14:45:52;11.50;;;9.60;;
34876;SDS011;21086;44.780;17.194;2023-02-28T14:48:25;11.70;;;9.80;;
34876;SDS011;21086;44.780;17.194;2023-02-28T14:50:54;10.32;;;9.23;;
34876;SDS011;21086;44.780;17.194;2023-02-28T14:53:25;9.30;;;7.75;;
34876;SDS011;21086;44.780;17.194;2023-02-28T14:55:55;15.65;;;9.93;;
34876;SDS011;21086;44.780;17.194;2023-02-28T14:58:26;11.45;;;10.13;;
34876;SDS011;21086;44.780;17.194;2023-02-28T15:00:55;9.52;;;8.48;;
34876;SDS011;21086;44.780;17.194;2023-02-28T15:03:30;9.63;;;8.63;;
34876;SDS011;21086;44.780;17.194;2023-02-28T15:06:11;11.90;;;10.70;;
34876;SDS011;21086;44.780;17.194;2023-02-28T15:08:40;9.00;;;8.10;;
34876;SDS011;21086;44.780;17.194;2023-02-28T15:11:08;8.40;;;7.50;;
34876;SDS011;21086;44.780;17.194;2023-02-28T15:13:48;10.90;;;9.80;;
34876;SDS011;21086;44.780;17.194;2023-02-28T15:16:19;10.07;;;9.05;;
34876;SDS011;21086;44.780;17.194;2023-02-28T15:21:21;8.00;;;7.20;;
34876;SDS011;21086;44.780;17.194;2023-02-28T15:23:53;9.00;;;7.90;;
34876;SDS011;21086;44.780;17.194;2023-02-28T15:26:25;7.78;;;6.90;;
34876;SDS011;21086;44.780;17.194;2023-02-28T15:28:58;8.13;;;7.07;;
34876;SDS011;21086;44.780;17.194;2023-02-28T15:31:28;10.20;;;8.90;;
34876;SDS011;21086;44.780;17.194;2023-02-28T15:34:20;11.50;;;10.00;;
34876;SDS011;21086;44.780;17.194;2023-02-28T15:36:53;12.63;;;11.20;;
34876;SDS011;21086;44.780;17.194;2023-02-28T15:39:22;16.50;;;13.18;;
34876;SDS011;21086;44.780;17.194;2023-02-28T15:41:51;14.05;;;11.30;;
34876;SDS011;21086;44.780;17.194;2023-02-28T15:44:35;15.60;;;12.35;;
34876;SDS011;21086;44.780;17.194;2023-02-28T15:47:17;12.88;;;9.63;;
34876;SDS011;21086;44.780;17.194;2023-02-28T15:49:48;11.82;;;10.50;;
34876;SDS011;21086;44.780;17.194;2023-02-28T15:52:33;10.40;;;8.80;;
34876;SDS011;21086;44.780;17.194;2023-02-28T15:55:22;10.20;;;8.73;;
34876;SDS011;21086;44.780;17.194;2023-02-28T15:57:53;22.40;;;16.65;;
34876;SDS011;21086;44.780;17.194;2023-02-28T16:00:25;13.30;;;11.25;;
34876;SDS011;21086;44.780;17.194;2023-02-28T16:02:53;9.93;;;7.53;;
34876;SDS011;21086;44.780;17.194;2023-02-28T16:07:58;12.77;;;10.50;;
34876;SDS011;21086;44.780;17.194;2023-02-28T16:10:27;10.23;;;8.75;;
34876;SDS011;21086;44.780;17.194;2023-02-28T16:12:55;12.93;;;11.32;;
34876;SDS011;21086;44.780;17.194;2023-02-28T16:15:28;12.70;;;10.20;;
34876;SDS011;21086;44.780;17.194;2023-02-28T16:17:57;10.52;;;8.80;;
34876;SDS011;21086;44.780;17.194;2023-02-28T16:20:28;10.48;;;8.45;;
34876;SDS011;21086;44.780;17.194;2023-02-28T16:22:56;8.00;;;7.13;;
34876;SDS011;21086;44.780;17.194;2023-02-28T16:25:34;10.55;;;8.13;;
34876;SDS011;21086;44.780;17.194;2023-02-28T16:28:19;12.63;;;8.98;;
34876;SDS011;21086;44.780;17.194;2023-02-28T16:31:01;12.00;;;10.23;;
34876;SDS011;21086;44.780;17.194;2023-02-28T16:33:33;14.55;;;11.25;;
34876;SDS011;21086;44.780;17.194;2023-02-28T16:36:00;12.60;;;10.15;;
34876;SDS011;21086;44.780;17.194;2023-02-28T16:38:27;14.75;;;10.95;;
34876;SDS011;21086;44.780;17.194;2023-02-28T16:40:55;11.65;;;9.77;;
34876;SDS011;21086;44.780;17.194;2023-02-28T16:43:25;11.00;;;8.82;;
34876;SDS011;21086;44.780;17.194;2023-02-28T16:45:56;13.50;;;11.88;;
34876;SDS011;21086;44.780;17.194;2023-02-28T16:48:26;11.40;;;10.20;;
34876;SDS011;21086;44.780;17.194;2023-02-28T16:50:53;11.20;;;9.25;;
34876;SDS011;21086;44.780;17.194;2023-02-28T16:53:20;14.13;;;10.15;;
34876;SDS011;21086;44.780;17.194;2023-02-28T16:55:47;12.45;;;10.10;;
34876;SDS011;21086;44.780;17.194;2023-02-28T16:58:15;9.57;;;8.35;;
34876;SDS011;21086;44.780;17.194;2023-02-28T17:00:47;12.75;;;10.57;;
34876;SDS011;21086;44.780;17.194;2023-02-28T17:03:25;21.90;;;17.15;;
34876;SDS011;21086;44.780;17.194;2023-02-28T17:05:58;13.77;;;10.60;;
34876;SDS011;21086;44.780;17.194;2023-02-28T17:08:26;15.63;;;10.50;;
34876;SDS011;21086;44.780;17.194;2023-02-28T17:10:55;10.25;;;8.48;;
34876;SDS011;21086;44.780;17.194;2023-02-28T17:13:22;15.05;;;13.07;;
34876;SDS011;21086;44.780;17.194;2023-02-28T17:15:49;10.60;;;8.70;;
34876;SDS011;21086;44.780;17.194;2023-02-28T17:18:17;13.30;;;11.02;;
34876;SDS011;21086;44.780;17.194;2023-02-28T17:20:45;13.25;;;8.00;;
34876;SDS011;21086;44.780;17.194;2023-02-28T17:23:13;9.63;;;7.97;;
34876;SDS011;21086;44.780;17.194;2023-02-28T17:25:40;8.82;;;7.43;;
34876;SDS011;21086;44.780;17.194;2023-02-28T17:28:08;10.40;;;9.30;;
34876;SDS011;21086;44.780;17.194;2023-02-28T17:30:35;11.35;;;10.15;;
34876;SDS011;21086;44.780;17.194;2023-02-28T17:33:02;10.25;;;9.20;;